createdAt,value
2022-08-22T00:01:15.896Z,94604.06
2022-08-22T00:02:52.978Z,94611.03
2022-08-22T00:02:58.875Z,94609.97
2022-08-22T00:03:00.025Z,94609.06
2022-08-22T00:03:00.889Z,94603.56
2022-08-22T00:03:10.106Z,94627.84
2022-08-22T00:03:15.359Z,94594.88
2022-08-22T00:03:55.971Z,94607.03
2022-08-22T00:06:32.623Z,94603.97
2022-08-22T00:09:12.990Z,94617.97
2022-08-22T00:11:49.218Z,94621.00
2022-08-22T00:14:25.315Z,94618.97
2022-08-22T00:17:06.558Z,94620.97
2022-08-22T00:19:48.534Z,94613.81
2022-08-22T00:22:24.549Z,94603.13
2022-08-22T00:25:04.385Z,94607.84
2022-08-22T00:27:44.930Z,94601.03
2022-08-22T00:30:16.455Z,94613.97
2022-08-22T00:32:50.946Z,94606.28
2022-08-22T00:35:25.755Z,94598.34
2022-08-22T00:38:03.099Z,94594.44
2022-08-22T00:40:46.457Z,94463.56
2022-08-22T00:43:54.808Z,94590.97
2022-08-22T00:46:50.502Z,94597.91
2022-08-22T00:49:50.058Z,94588.84
2022-08-22T00:52:35.723Z,94555.69
2022-08-22T00:55:21.649Z,94599.75
2022-08-22T00:58:09.604Z,94598.31
2022-08-22T01:00:45.734Z,94610.47
2022-08-22T01:03:47.358Z,94619.97
2022-08-22T01:06:25.690Z,94619.38
2022-08-22T01:09:06.616Z,94538.16
2022-08-22T01:11:53.263Z,94603.06
2022-08-22T01:14:39.249Z,94615.72
2022-08-22T01:17:37.925Z,94619.78
2022-08-22T01:20:34.639Z,94613.31
2022-08-22T01:23:56.392Z,94607.22
2022-08-22T01:26:56.020Z,94616.69
2022-08-22T01:30:11.568Z,94616.06
2022-08-22T01:33:10.444Z,94619.63
2022-08-22T01:36:04.112Z,94612.09
2022-08-22T01:39:01.185Z,94610.88
2022-08-22T01:41:50.496Z,94616.91
2022-08-22T01:44:40.856Z,94621.00
2022-08-22T01:47:15.640Z,94612.38
2022-08-22T01:49:50.081Z,94616.28
2022-08-22T01:52:34.836Z,94613.47
2022-08-22T01:55:09.093Z,94619.19
2022-08-22T01:57:52.973Z,94555.03
2022-08-22T02:00:34.799Z,94392.44
2022-08-22T02:03:20.243Z,94612.47
2022-08-22T02:05:54.131Z,94600.69
2022-08-22T02:08:32.965Z,94598.13
2022-08-22T02:11:06.161Z,94607.63
2022-08-22T02:13:54.324Z,94596.19
2022-08-22T02:16:33.473Z,94597.22
2022-08-22T02:19:22.358Z,94597.41
2022-08-22T02:21:55.428Z,94602.44
2022-08-22T02:24:39.160Z,94594.75
2022-08-22T02:27:13.260Z,94595.06
2022-08-22T02:29:48.992Z,94592.16
2022-08-22T02:32:23.961Z,94592.19
2022-08-22T02:35:03.565Z,94603.88
2022-08-22T02:37:38.548Z,94598.63
2022-08-22T02:40:17.779Z,94599.41
2022-08-22T02:42:53.143Z,94590.50
2022-08-22T02:45:31.404Z,94588.47
2022-08-22T02:48:05.647Z,94589.47
2022-08-22T02:50:42.542Z,94586.00
2022-08-22T02:53:16.021Z,94594.03
2022-08-22T02:55:53.937Z,94595.47
2022-08-22T02:58:30.631Z,94563.50
2022-08-22T03:01:22.519Z,94584.63
2022-08-22T03:03:52.321Z,94599.50
2022-08-22T03:06:40.367Z,94589.94
2022-08-22T03:09:24.561Z,94595.78
2022-08-22T03:12:10.616Z,94589.06
2022-08-22T03:14:46.144Z,94566.09
2022-08-22T03:17:19.126Z,94590.59
2022-08-22T03:20:03.600Z,94597.94
2022-08-22T03:22:39.910Z,94593.91
2022-08-22T03:25:16.052Z,94587.75
2022-08-22T03:27:54.992Z,94588.44
2022-08-22T03:30:39.199Z,94594.94
2022-08-22T03:33:20.432Z,94592.97
2022-08-22T03:36:13.028Z,94592.25
2022-08-22T03:38:50.241Z,94568.28
2022-08-22T03:41:38.627Z,94595.44
2022-08-22T03:44:41.870Z,94591.88
2022-08-22T03:47:35.240Z,94592.47
2022-08-22T03:50:29.206Z,94598.63
2022-08-22T03:53:26.405Z,94585.63
2022-08-22T03:56:22.530Z,94598.25
2022-08-22T03:59:13.586Z,94588.97
2022-08-22T04:02:42.018Z,94601.56
2022-08-22T04:05:29.466Z,94606.22
2022-08-22T04:08:29.428Z,94606.81
2022-08-22T04:11:13.016Z,94617.91
2022-08-22T04:14:10.572Z,94618.00
2022-08-22T04:17:24.220Z,94619.97
2022-08-22T04:20:16.793Z,94629.28
2022-08-22T04:23:29.761Z,94623.63
2022-08-22T04:26:11.930Z,94575.38
2022-08-22T04:28:46.251Z,94621.00
2022-08-22T04:31:17.321Z,94623.34
2022-08-22T04:33:50.886Z,94625.91
2022-08-22T04:36:24.882Z,94628.44
2022-08-22T04:38:59.883Z,94622.91
2022-08-22T04:41:34.435Z,94575.63
2022-08-22T04:44:07.090Z,94624.88
2022-08-22T04:46:42.344Z,94637.97
2022-08-22T04:49:18.217Z,94636.22
2022-08-22T04:51:53.440Z,94633.03
2022-08-22T04:54:42.652Z,94635.34
2022-08-22T04:57:23.289Z,94635.34
2022-08-22T04:59:52.211Z,94627.22
2022-08-22T05:02:27.721Z,94623.72
2022-08-22T05:05:04.256Z,94618.91
2022-08-22T05:07:37.217Z,94629.63
2022-08-22T05:10:12.197Z,94621.66
2022-08-22T05:12:47.253Z,94612.13
2022-08-22T05:15:23.293Z,94619.25
2022-08-22T05:17:54.258Z,94625.44
2022-08-22T05:20:27.262Z,94622.69
2022-08-22T05:23:00.668Z,94589.69
2022-08-22T05:25:33.171Z,94632.75
2022-08-22T05:28:12.234Z,94586.94
2022-08-22T05:30:41.362Z,94568.09
2022-08-22T05:33:17.872Z,94631.84
2022-08-22T05:35:57.233Z,94632.59
2022-08-22T05:38:32.037Z,94571.34
2022-08-22T05:41:06.749Z,94638.91
2022-08-22T05:43:38.636Z,94642.06
2022-08-22T05:46:11.139Z,94648.88
2022-08-22T05:48:43.897Z,94642.91
2022-08-22T05:51:21.621Z,94645.38
2022-08-22T05:53:57.701Z,94644.06
2022-08-22T05:56:38.922Z,94646.97
2022-08-22T05:59:20.718Z,94612.44
2022-08-22T06:02:01.978Z,94656.28
2022-08-22T06:04:37.244Z,94653.91
2022-08-22T06:07:13.091Z,94587.56
2022-08-22T06:10:20.584Z,94653.91
2022-08-22T06:12:57.523Z,94660.13
2022-08-22T06:15:31.754Z,94654.75
2022-08-22T06:18:05.247Z,94656.66
2022-08-22T06:20:39.353Z,94657.25
2022-08-22T06:23:09.577Z,94654.41
2022-08-22T06:25:43.465Z,94627.09
2022-08-22T06:28:31.174Z,94658.28
2022-08-22T06:31:00.707Z,94655.16
2022-08-22T06:33:31.922Z,94658.00
2022-08-22T06:36:23.109Z,94637.94
2022-08-22T06:39:01.465Z,94648.75
2022-08-22T06:41:34.650Z,94652.75
2022-08-22T06:44:05.672Z,94658.00
2022-08-22T06:46:37.743Z,94660.47
2022-08-22T06:49:09.386Z,94667.19
2022-08-22T06:51:39.648Z,94658.19
2022-08-22T06:54:16.425Z,94645.56
2022-08-22T06:56:51.741Z,94648.84
2022-08-22T06:59:26.538Z,94637.34
2022-08-22T07:02:03.635Z,94650.44
2022-08-22T07:04:32.943Z,94608.06
2022-08-22T07:07:02.831Z,94591.16
2022-08-22T07:09:36.006Z,94638.56
2022-08-22T07:12:13.220Z,94644.31
2022-08-22T07:14:45.775Z,94643.59
2022-08-22T07:17:19.413Z,94645.19
2022-08-22T07:19:56.263Z,94650.38
2022-08-22T07:22:28.447Z,94513.78
2022-08-22T07:25:02.853Z,94624.78
2022-08-22T07:28:03.673Z,94637.47
2022-08-22T07:30:46.594Z,94631.72
2022-08-22T07:33:28.644Z,94635.75
2022-08-22T07:36:01.699Z,94625.53
2022-08-22T07:38:42.881Z,94616.19
2022-08-22T07:41:17.769Z,94614.34
2022-08-22T07:43:53.148Z,94612.03
2022-08-22T07:46:30.239Z,94622.19
2022-08-22T07:49:09.851Z,94611.78
2022-08-22T07:51:45.408Z,94613.94
2022-08-22T07:54:16.696Z,94610.19
2022-08-22T07:56:48.995Z,94612.75
2022-08-22T07:59:21.548Z,94602.88
2022-08-22T08:01:57.097Z,94608.28
2022-08-22T08:04:27.505Z,94601.31
2022-08-22T08:07:00.213Z,94566.06
2022-08-22T08:09:32.973Z,94596.03
2022-08-22T08:12:03.635Z,94584.25
2022-08-22T08:14:37.473Z,94583.53
2022-08-22T08:17:09.928Z,94593.78
2022-08-22T08:19:43.053Z,94591.22
2022-08-22T08:22:18.595Z,94586.00
2022-08-22T08:24:48.443Z,94582.50
2022-08-22T08:27:39.224Z,94521.03
2022-08-22T08:30:15.767Z,94580.69
2022-08-22T08:32:49.330Z,94579.84
2022-08-22T08:35:25.459Z,94552.06
2022-08-22T08:38:00.935Z,94583.31
2022-08-22T08:40:57.451Z,94586.72
2022-08-22T08:43:38.357Z,94578.88
2022-08-22T08:46:36.019Z,94578.81
2022-08-22T08:49:42.742Z,94589.97
2022-08-22T08:52:51.017Z,94580.19
2022-08-22T08:55:35.821Z,94574.06
2022-08-22T08:58:27.605Z,94571.75
2022-08-22T09:01:03.691Z,94571.44
2022-08-22T09:04:04.275Z,94561.16
2022-08-22T09:07:01.038Z,94538.25
2022-08-22T09:09:46.788Z,94557.16
2022-08-22T09:16:12.972Z,94558.81
2022-08-22T09:19:12.640Z,94556.56
2022-08-22T09:22:14.678Z,94556.91
2022-08-22T09:25:20.504Z,94545.50
2022-08-22T09:28:00.780Z,94540.25
2022-08-22T09:30:44.889Z,94530.34
2022-08-22T09:33:18.751Z,94543.88
2022-08-22T09:35:56.367Z,94557.69
2022-08-22T09:38:34.750Z,94560.38
2022-08-22T09:40:15.454Z,94558.88
2022-08-22T09:41:19.675Z,94541.28
2022-08-22T09:44:02.534Z,94542.34
2022-08-22T09:46:37.300Z,94541.16
2022-08-22T09:49:13.204Z,94537.56
2022-08-22T09:51:47.352Z,94533.00
2022-08-22T09:54:33.912Z,94531.56
2022-08-22T09:57:16.179Z,94519.03
2022-08-22T10:00:22.427Z,94540.81
2022-08-22T10:03:18.561Z,94546.25
2022-08-22T10:05:49.573Z,94539.22
2022-08-22T10:08:39.491Z,94532.16
2022-08-22T10:11:29.044Z,94528.88
2022-08-22T10:14:05.107Z,94545.09
2022-08-22T10:16:49.388Z,94542.81
2022-08-22T10:19:26.253Z,94551.94
2022-08-22T10:22:29.782Z,94568.28
2022-08-22T10:25:25.282Z,94557.66
2022-08-22T10:28:34.031Z,94554.31
2022-08-22T10:31:23.743Z,94552.13
2022-08-22T10:34:02.517Z,94558.06
2022-08-22T10:36:44.346Z,94561.53
2022-08-22T10:39:20.008Z,94567.09
2022-08-22T10:42:27.938Z,94557.56
2022-08-22T10:45:23.542Z,94559.38
2022-08-22T10:48:32.657Z,94557.69
2022-08-22T10:51:10.973Z,94549.94
2022-08-22T10:54:01.129Z,94552.31
2022-08-22T10:56:36.331Z,94539.13
2022-08-22T10:59:26.630Z,94538.75
2022-08-22T11:02:14.941Z,94534.94
2022-08-22T11:05:08.244Z,94537.03
2022-08-22T11:07:48.678Z,94554.44
2022-08-22T11:10:30.087Z,94563.31
2022-08-22T11:13:13.131Z,94567.56
2022-08-22T11:15:59.936Z,94555.84
2022-08-22T11:19:02.858Z,94570.75
2022-08-22T11:21:47.832Z,94555.56
2022-08-22T11:25:05.052Z,94561.25
2022-08-22T11:27:44.508Z,94561.44
2022-08-22T11:30:18.188Z,94570.66
2022-08-22T11:33:22.942Z,94564.94
2022-08-22T11:36:13.464Z,94573.97
2022-08-22T11:38:54.662Z,94433.19
2022-08-22T11:41:28.137Z,94550.09
2022-08-22T11:44:03.479Z,94560.41
2022-08-22T11:46:35.536Z,94546.06
2022-08-22T11:49:31.632Z,94598.72
2022-08-22T11:52:18.926Z,94563.25
2022-08-22T11:55:07.169Z,94439.25
2022-08-22T11:57:38.970Z,94594.00
2022-08-22T12:00:26.604Z,94592.38
2022-08-22T12:03:47.069Z,94591.53
2022-08-22T12:06:41.895Z,94565.78
2022-08-22T12:09:17.994Z,94576.78
2022-08-22T12:12:00.441Z,94572.13
2022-08-22T12:14:35.112Z,94577.75
2022-08-22T12:17:50.937Z,94580.50
2022-08-22T12:20:30.386Z,94578.44
2022-08-22T12:23:38.083Z,94581.16
2022-08-22T12:26:22.425Z,94589.34
2022-08-22T12:29:04.723Z,94589.00
2022-08-22T12:32:15.095Z,94587.47
2022-08-22T12:34:55.934Z,94597.94
2022-08-22T12:37:31.056Z,94581.19
2022-08-22T12:40:52.028Z,94596.91
2022-08-22T12:43:51.320Z,94590.31
2022-08-22T12:46:29.549Z,94591.47
2022-08-22T12:49:15.920Z,94600.81
2022-08-22T12:52:04.619Z,94612.03
2022-08-22T12:55:08.050Z,94605.47
2022-08-22T12:57:50.561Z,94612.91
2022-08-22T13:00:31.608Z,94622.63
2022-08-22T13:03:03.677Z,94589.56
2022-08-22T13:05:40.638Z,94613.69
2022-08-22T13:08:14.136Z,94598.47
2022-08-22T13:10:48.300Z,94586.44
2022-08-22T13:13:31.748Z,94606.66
2022-08-22T13:16:08.988Z,94597.75
2022-08-22T13:18:47.460Z,94601.63
2022-08-22T13:21:28.844Z,94593.38
2022-08-22T13:24:10.491Z,94598.34
2022-08-22T13:26:49.282Z,94580.47
2022-08-22T13:29:26.612Z,94606.44
2022-08-22T13:32:01.919Z,94594.31
2022-08-22T13:34:39.908Z,94612.34
2022-08-22T13:37:16.403Z,94616.56
2022-08-22T13:39:49.920Z,94573.91
2022-08-22T13:42:30.044Z,94552.16
2022-08-22T13:45:05.299Z,94616.56
2022-08-22T13:47:39.602Z,94586.75
2022-08-22T13:50:14.662Z,94612.03
2022-08-22T13:52:53.744Z,94600.97
2022-08-22T13:55:31.362Z,94546.56
2022-08-22T13:58:06.711Z,94608.19
2022-08-22T14:01:10.884Z,94600.13
2022-08-22T14:03:48.528Z,94596.00
2022-08-22T14:06:36.835Z,94600.63
2022-08-22T14:09:29.519Z,94592.56
2022-08-22T14:12:12.272Z,94602.47
2022-08-22T14:14:46.210Z,94598.97
2022-08-22T14:17:22.744Z,94598.97
2022-08-22T14:19:59.676Z,94603.41
2022-08-22T14:22:35.007Z,94608.41
2022-08-22T14:25:08.898Z,94589.59
2022-08-22T14:27:40.689Z,94598.53
2022-08-22T14:30:18.791Z,94598.44
2022-08-22T14:32:52.617Z,94574.75
2022-08-22T14:35:34.733Z,94588.19
2022-08-22T14:38:21.460Z,94585.88
2022-08-22T14:41:03.460Z,94587.28
2022-08-22T14:43:49.543Z,94578.56
2022-08-22T14:46:26.621Z,94592.00
2022-08-22T14:49:16.080Z,94579.13
2022-08-22T14:51:50.738Z,94584.25
2022-08-22T14:54:22.885Z,94583.56
2022-08-22T14:56:59.525Z,94590.53
2022-08-22T14:59:40.978Z,94514.91
2022-08-22T15:02:15.684Z,94591.00
2022-08-22T15:04:47.881Z,94586.47
2022-08-22T15:07:25.103Z,94588.34
2022-08-22T15:09:56.400Z,94591.41
2022-08-22T15:12:30.809Z,94598.22
2022-08-22T15:15:02.160Z,94594.47
2022-08-22T15:17:44.434Z,94597.63
2022-08-22T15:20:28.560Z,94594.53
2022-08-22T15:23:00.486Z,94595.16
2022-08-22T15:25:32.456Z,94592.53
2022-08-22T15:28:06.949Z,94590.38
2022-08-22T15:30:46.377Z,94595.06
2022-08-22T15:33:24.271Z,94592.31
2022-08-22T15:35:56.192Z,94599.72
2022-08-22T15:38:32.066Z,94609.81
2022-08-22T15:41:32.230Z,94605.53
2022-08-22T15:44:14.871Z,94597.38
2022-08-22T15:47:02.257Z,94603.22
2022-08-22T15:49:34.685Z,94609.44
2022-08-22T15:52:26.180Z,94600.47
2022-08-22T15:55:27.653Z,94604.75
2022-08-22T15:58:07.703Z,94548.81
2022-08-22T16:00:41.925Z,94578.38
2022-08-22T16:03:16.238Z,94518.16
2022-08-22T16:05:55.713Z,94574.47
2022-08-22T16:08:32.953Z,94584.19
2022-08-22T16:11:21.332Z,94590.41
2022-08-22T16:14:21.328Z,94593.78
2022-08-22T16:17:01.994Z,94596.94
2022-08-22T16:19:32.709Z,94595.78
2022-08-22T16:22:14.080Z,94590.31
2022-08-22T16:25:10.743Z,94607.00
2022-08-22T16:27:53.899Z,94597.34
2022-08-22T16:30:34.900Z,94599.16
2022-08-22T16:33:04.632Z,94538.00
2022-08-22T16:36:15.441Z,94608.41
2022-08-22T16:38:48.488Z,94614.41
2022-08-22T16:41:37.092Z,94612.91
2022-08-22T16:44:42.080Z,94613.78
2022-08-22T16:47:17.553Z,94622.19
2022-08-22T16:50:03.853Z,94631.44
2022-08-22T16:52:57.936Z,94636.22
2022-08-22T16:56:03.578Z,94626.91
2022-08-22T16:59:06.112Z,94616.41
2022-08-22T17:02:06.274Z,94624.78
2022-08-22T17:04:45.748Z,94629.44
2022-08-22T17:07:29.110Z,94564.34
2022-08-22T17:10:29.320Z,94629.31
2022-08-22T17:13:18.597Z,94627.72
2022-08-22T17:16:00.245Z,94580.09
2022-08-22T17:18:52.881Z,94625.41
2022-08-22T17:21:27.137Z,94622.81
2022-08-22T17:24:05.970Z,94632.78
2022-08-22T17:26:48.928Z,94640.75
2022-08-22T17:29:32.261Z,94604.66
2022-08-22T17:32:26.144Z,94646.47
2022-08-22T17:35:01.458Z,94641.75
2022-08-22T17:37:40.777Z,94651.44
2022-08-22T17:40:24.550Z,94649.22
2022-08-22T17:43:10.756Z,94601.47
2022-08-22T17:45:54.289Z,94657.22
2022-08-22T17:48:28.067Z,94668.69
2022-08-22T17:51:01.208Z,94671.75
2022-08-22T17:53:37.609Z,94673.25
2022-08-22T17:56:15.639Z,94677.31
2022-08-22T17:58:51.052Z,94682.38
2022-08-22T18:01:37.886Z,94678.69
2022-08-22T18:04:13.530Z,94676.22
2022-08-22T18:06:56.194Z,94682.09
2022-08-22T18:09:34.057Z,94679.44
2022-08-22T18:12:09.279Z,94677.72
2022-08-22T18:14:45.476Z,94680.50
2022-08-22T18:17:19.606Z,94693.03
2022-08-22T18:19:59.403Z,94689.16
2022-08-22T18:22:35.063Z,94701.88
2022-08-22T18:25:09.732Z,94698.16
2022-08-22T18:27:49.064Z,94689.41
2022-08-22T18:30:21.491Z,94696.28
2022-08-22T18:32:58.104Z,94706.56
2022-08-22T18:35:32.721Z,94710.81
2022-08-22T18:38:19.298Z,94712.69
2022-08-22T18:40:53.510Z,94708.06
2022-08-22T18:43:27.385Z,94716.59
2022-08-22T18:46:03.499Z,94714.03
2022-08-22T18:48:54.321Z,94715.53
2022-08-22T18:51:32.032Z,94723.06
2022-08-22T18:54:26.545Z,94722.84
2022-08-22T18:57:07.129Z,94723.56
2022-08-22T19:00:01.999Z,94715.19
2022-08-22T19:02:57.889Z,94725.09
2022-08-22T19:05:48.582Z,94740.94
2022-08-22T19:08:57.293Z,94741.22
2022-08-22T19:11:44.053Z,94740.13
2022-08-22T19:14:28.027Z,94740.38
2022-08-22T19:17:23.708Z,94729.88
2022-08-22T19:20:18.638Z,94729.31
2022-08-22T19:22:51.211Z,94731.78
2022-08-22T19:25:27.178Z,94733.69
2022-08-22T19:28:25.472Z,94725.97
2022-08-22T19:31:23.452Z,94715.28
2022-08-22T19:34:07.492Z,94694.34
2022-08-22T19:36:36.255Z,94708.50
2022-08-22T19:39:08.998Z,94705.44
2022-08-22T19:41:52.663Z,94701.78
2022-08-22T19:44:40.721Z,94711.38
2022-08-22T19:47:27.201Z,94692.44
2022-08-22T19:50:05.617Z,94695.19
2022-08-22T19:52:57.719Z,94694.09
2022-08-22T19:55:33.477Z,94694.50
2022-08-22T19:58:09.338Z,94671.44
2022-08-22T20:00:53.219Z,94697.09
2022-08-22T20:03:35.044Z,94698.69
2022-08-22T20:06:22.009Z,94715.84
2022-08-22T20:09:13.319Z,94715.38
2022-08-22T20:11:47.895Z,94685.38
2022-08-22T20:14:30.303Z,94715.09
2022-08-22T20:17:03.429Z,94710.38
2022-08-22T20:20:16.449Z,94704.97
2022-08-22T20:22:38.864Z,94703.56
2022-08-22T20:25:16.863Z,94708.09
2022-08-22T20:28:04.150Z,94708.09
2022-08-22T20:30:40.600Z,94710.00
2022-08-22T20:33:10.915Z,94698.41
2022-08-22T20:35:42.841Z,94716.44
2022-08-22T20:38:15.790Z,94728.91
2022-08-22T20:40:54.681Z,94734.56
2022-08-22T20:43:34.443Z,94736.34
2022-08-22T20:46:26.929Z,94728.19
2022-08-22T20:48:57.405Z,94724.97
2022-08-22T20:51:28.288Z,94717.81
2022-08-22T20:53:59.453Z,94731.84
2022-08-22T20:56:52.756Z,94734.44
2022-08-22T20:59:30.180Z,94694.00
2022-08-22T21:02:07.813Z,94722.06
2022-08-22T21:04:43.071Z,94732.28
2022-08-22T21:07:11.899Z,94735.91
2022-08-22T21:09:57.396Z,94737.84
2022-08-22T21:12:26.501Z,94737.38
2022-08-22T21:14:55.181Z,94744.88
2022-08-22T21:17:29.233Z,94713.25
2022-08-22T21:20:21.305Z,94729.44
2022-08-22T21:22:50.483Z,94728.97
2022-08-22T21:25:19.057Z,94638.81
2022-08-22T21:27:49.576Z,94719.75
2022-08-22T21:30:25.655Z,94711.72
2022-08-22T21:32:56.589Z,94707.03
2022-08-22T21:35:29.646Z,94710.94
2022-08-22T21:37:59.146Z,94658.91
2022-08-22T21:40:34.031Z,94717.78
2022-08-22T21:43:07.046Z,94720.34
2022-08-22T21:45:42.981Z,94723.59
2022-08-22T21:48:43.912Z,94711.56
2022-08-22T21:51:42.855Z,94702.69
2022-08-22T21:54:40.987Z,94694.19
2022-08-22T21:57:36.779Z,94703.59
2022-08-22T22:00:12.882Z,94728.09
2022-08-22T22:02:43.742Z,94727.69
2022-08-22T22:05:16.064Z,94764.19
2022-08-22T22:07:47.744Z,94756.25
2022-08-22T22:10:18.469Z,94755.06
2022-08-22T22:12:48.840Z,94742.19
2022-08-22T22:15:21.139Z,94737.34
2022-08-22T22:17:49.956Z,94721.97
2022-08-22T22:20:21.537Z,94710.72
2022-08-22T22:22:50.389Z,94705.13
2022-08-22T22:25:39.563Z,94745.28
2022-08-22T22:28:12.392Z,94741.66
2022-08-22T22:30:41.323Z,94685.63
2022-08-22T22:33:09.849Z,94759.81
2022-08-22T22:35:41.525Z,94758.81
2022-08-22T22:38:11.932Z,94770.16
2022-08-22T22:40:41.601Z,94784.78
2022-08-22T22:43:10.749Z,94794.22
2022-08-22T22:45:40.153Z,94786.34
2022-08-22T22:48:09.268Z,94791.88
2022-08-22T22:50:40.816Z,94777.41
2022-08-22T22:53:11.380Z,94782.34
2022-08-22T22:55:59.826Z,94792.00
2022-08-22T22:58:28.701Z,94789.09
2022-08-22T23:00:57.652Z,94781.91
2022-08-22T23:03:26.851Z,94780.78
2022-08-22T23:05:55.283Z,94782.13
2022-08-22T23:08:25.087Z,94780.78
2022-08-22T23:10:53.480Z,94777.41
2022-08-22T23:13:21.961Z,94780.03
2022-08-22T23:15:50.424Z,94762.59
2022-08-22T23:18:18.779Z,94780.97
2022-08-22T23:20:55.042Z,94780.97
2022-08-22T23:23:24.864Z,94776.53
2022-08-22T23:25:53.250Z,94777.75
2022-08-22T23:28:21.660Z,94786.88
2022-08-22T23:30:49.991Z,94784.38
2022-08-22T23:33:18.400Z,94791.28
2022-08-22T23:35:46.762Z,94805.28
2022-08-22T23:38:15.084Z,94785.22
2022-08-22T23:40:50.002Z,94787.78
2022-08-22T23:43:18.448Z,94782.25
2022-08-22T23:45:47.092Z,94778.66
2022-08-22T23:48:15.505Z,94773.72
2022-08-22T23:50:43.908Z,94771.94
2022-08-22T23:53:12.314Z,94770.56
2022-08-22T23:55:40.755Z,94758.13
2022-08-22T23:58:10.703Z,94754.72
